Time;durP1;ratioP1;P1;durP2;ratioP2;P2;SDS_P1;SDS_P2;PMS_P1;PMS_P2;Temp;Humidity;BMP_temperature;BMP_pressure;BME280_temperature;BME280_humidity;BME280_pressure;Samples;Min_cycle;Max_cycle;Signal;HPM_P1;HPM_P2
2023/05/21 00:03:50;;;;;;;9.52;8.45;;;;;;;;;;10309622;28;20064;-67
2023/05/21 00:08:48;;;;;;;13.57;9.93;;;;;;;;;;10306585;28;20070;-67
2023/05/21 00:13:47;;;;;;;14.00;10.15;;;;;;;;;;10313977;28;20052;-67
2023/05/21 00:18:46;;;;;;;13.07;9.45;;;;;;;;;;10313589;28;20087;-68
2023/05/21 00:23:47;;;;;;;11.05;8.85;;;;;;;;;;10312847;28;20083;-67
2023/05/21 00:28:45;;;;;;;13.07;9.35;;;;;;;;;;10313597;28;20446;-67
2023/05/21 00:33:43;;;;;;;14.43;9.63;;;;;;;;;;10312048;28;20079;-67
2023/05/21 00:38:42;;;;;;;11.18;10.18;;;;;;;;;;10299287;28;20075;-67
2023/05/21 00:43:43;;;;;;;11.68;10.48;;;;;;;;;;10312036;28;20438;-67
2023/05/21 00:48:41;;;;;;;12.15;10.38;;;;;;;;;;10311767;28;20072;-68
2023/05/21 00:53:40;;;;;;;13.45;8.82;;;;;;;;;;10311059;28;20476;-67
2023/05/21 00:58:38;;;;;;;12.23;9.35;;;;;;;;;;10311230;28;20076;-67
2023/05/21 01:03:38;;;;;;;11.60;8.60;;;;;;;;;;10316211;28;20071;-67
2023/05/21 01:08:39;;;;;;;9.82;8.75;;;;;;;;;;10325163;28;20091;-67
2023/05/21 01:13:39;;;;;;;14.60;10.70;;;;;;;;;;10323712;28;20470;-67
2023/05/21 01:18:42;;;;;;;15.15;10.75;;;;;;;;;;10324938;28;20618;-67
2023/05/21 01:23:42;;;;;;;;;;;;;;;;;;10322482;28;20068;-67
2023/05/21 01:28:41;;;;;;;13.80;10.23;;;;;;;;;;10323191;28;19952;-66
2023/05/21 01:33:44;;;;;;;12.70;9.73;;;;;;;;;;10325619;28;20447;-67
2023/05/21 01:38:42;;;;;;;15.52;9.82;;;;;;;;;;10322267;28;20130;-67
2023/05/21 01:43:44;;;;;;;14.00;10.10;;;;;;;;;;10322423;28;20075;-66
2023/05/21 01:48:43;;;;;;;14.30;9.25;;;;;;;;;;10312585;28;20060;-67
2023/05/21 01:53:41;;;;;;;11.38;9.88;;;;;;;;;;10324471;28;20068;-66
2023/05/21 01:58:40;;;;;;;13.38;9.18;;;;;;;;;;10323042;28;20083;-66
2023/05/21 02:03:40;;;;;;;11.23;10.13;;;;;;;;;;10324559;28;20071;-67
2023/05/21 02:08:39;;;;;;;13.60;10.77;;;;;;;;;;10319430;28;20142;-67
2023/05/21 02:13:41;;;;;;;12.52;10.95;;;;;;;;;;10322374;28;20075;-67
2023/05/21 02:18:42;;;;;;;14.88;10.95;;;;;;;;;;10317011;28;20079;-67
2023/05/21 02:23:40;;;;;;;11.95;10.85;;;;;;;;;;10306229;28;20079;-67
2023/05/21 02:28:39;;;;;;;13.30;9.60;;;;;;;;;;10317029;28;20068;-67
2023/05/21 02:33:39;;;;;;;13.45;10.00;;;;;;;;;;10317654;28;20131;-67
2023/05/21 02:38:42;;;;;;;11.40;9.55;;;;;;;;;;10315560;28;20071;-67
2023/05/21 02:43:41;;;;;;;11.32;10.10;;;;;;;;;;10314776;28;20068;-66
2023/05/21 02:48:39;;;;;;;12.05;9.75;;;;;;;;;;10313933;28;20068;-67
2023/05/21 02:53:39;;;;;;;12.02;10.13;;;;;;;;;;10313084;28;20808;-66
2023/05/21 02:58:37;;;;;;;14.70;10.45;;;;;;;;;;10311184;28;20072;-67
2023/05/21 03:03:36;;;;;;;11.27;10.18;;;;;;;;;;10312575;28;20071;-67
2023/05/21 03:08:34;;;;;;;12.18;10.52;;;;;;;;;;10310243;28;20080;-67
2023/05/21 03:13:34;;;;;;;15.30;10.85;;;;;;;;;;10313940;28;20481;-67
2023/05/21 03:18:32;;;;;;;14.43;10.88;;;;;;;;;;10310017;28;20106;-67
2023/05/21 03:23:30;;;;;;;18.90;11.30;;;;;;;;;;10316139;28;20059;-67
2023/05/21 03:28:29;;;;;;;13.80;9.77;;;;;;;;;;10313302;28;20103;-66
2023/05/21 03:33:29;;;;;;;14.02;10.52;;;;;;;;;;10315704;28;20170;-67
2023/05/21 03:38:27;;;;;;;14.48;10.18;;;;;;;;;;10313886;28;20088;-66
2023/05/21 03:43:25;;;;;;;11.90;10.05;;;;;;;;;;10315045;28;20067;-67
2023/05/21 03:48:24;;;;;;;15.30;9.85;;;;;;;;;;10313346;28;20067;-67
2023/05/21 03:53:24;;;;;;;13.65;10.57;;;;;;;;;;10310638;28;20548;-67
2023/05/21 03:58:22;;;;;;;12.23;10.52;;;;;;;;;;10312360;28;20076;-67
2023/05/21 04:03:21;;;;;;;12.68;10.98;;;;;;;;;;10306866;28;20072;-66
2023/05/21 04:08:19;;;;;;;12.75;10.95;;;;;;;;;;10308202;28;20514;-66
2023/05/21 04:13:19;;;;;;;11.57;10.32;;;;;;;;;;10311010;28;20490;-66
2023/05/21 04:18:19;;;;;;;14.38;11.60;;;;;;;;;;10310919;28;20079;-66
2023/05/21 04:23:17;;;;;;;11.70;10.25;;;;;;;;;;10310090;28;20182;-67
2023/05/21 04:28:18;;;;;;;13.73;10.48;;;;;;;;;;10312498;28;20166;-67
2023/05/21 04:33:19;;;;;;;12.50;11.15;;;;;;;;;;10310203;28;20076;-67
2023/05/21 04:38:18;;;;;;;15.82;10.90;;;;;;;;;;10311806;28;20079;-66
2023/05/21 04:43:16;;;;;;;14.40;11.75;;;;;;;;;;10299725;28;20064;-66
2023/05/21 04:48:15;;;;;;;14.38;10.15;;;;;;;;;;10309495;28;20080;-65
2023/05/21 04:53:14;;;;;;;16.88;11.60;;;;;;;;;;10311101;28;20080;-65
2023/05/21 04:58:13;;;;;;;17.00;11.48;;;;;;;;;;10311400;28;20084;-67
2023/05/21 05:03:11;;;;;;;15.25;10.57;;;;;;;;;;10311056;28;20514;-66
2023/05/21 05:08:10;;;;;;;12.00;10.75;;;;;;;;;;10309799;28;20064;-65
2023/05/21 05:13:13;;;;;;;18.55;11.27;;;;;;;;;;10320339;28;20060;-67
2023/05/21 05:18:12;;;;;;;21.25;12.27;;;;;;;;;;10309631;28;20079;-68
2023/05/21 05:23:10;;;;;;;15.32;11.52;;;;;;;;;;10308951;28;20083;-67
2023/05/21 05:28:10;;;;;;;16.88;10.75;;;;;;;;;;10308757;28;20068;-66
2023/05/21 05:33:10;;;;;;;14.27;9.98;;;;;;;;;;10310843;28;20085;-66
2023/05/21 05:38:09;;;;;;;18.15;11.57;;;;;;;;;;10309374;28;20071;-67
2023/05/21 05:43:08;;;;;;;12.60;10.48;;;;;;;;;;10308626;28;20067;-66
2023/05/21 05:48:07;;;;;;;15.43;12.48;;;;;;;;;;10302667;28;20068;-67
2023/05/21 05:53:07;;;;;;;12.23;9.50;;;;;;;;;;10310719;28;20071;-65
2023/05/21 05:58:05;;;;;;;15.55;8.90;;;;;;;;;;10313056;28;20079;-67
2023/05/21 06:03:16;;;;;;;12.05;9.48;;;;;;;;;;10314568;28;20083;-64
2023/05/21 06:08:16;;;;;;;13.15;10.57;;;;;;;;;;10300870;28;20076;-65
2023/05/21 06:13:16;;;;;;;10.93;8.68;;;;;;;;;;10302419;28;20071;-65
2023/05/21 06:18:14;;;;;;;9.35;8.25;;;;;;;;;;10303593;28;20076;-65
2023/05/21 06:23:12;;;;;;;14.23;8.85;;;;;;;;;;10295170;28;20072;-65
2023/05/21 06:28:14;;;;;;;13.38;10.68;;;;;;;;;;10309803;28;20064;-65
2023/05/21 06:33:12;;;;;;;11.07;7.95;;;;;;;;;;10312647;28;20072;-65
2023/05/21 06:38:12;;;;;;;7.80;7.00;;;;;;;;;;10304256;28;20131;-65
2023/05/21 06:43:12;;;;;;;10.90;7.95;;;;;;;;;;10301499;28;20127;-66
2023/05/21 06:48:14;;;;;;;11.95;7.88;;;;;;;;;;10316636;28;20102;-66
2023/05/21 06:53:15;;;;;;;9.55;7.90;;;;;;;;;;10301367;28;20471;-66
2023/05/21 06:58:15;;;;;;;9.30;7.03;;;;;;;;;;10314409;28;20080;-66
2023/05/21 07:03:14;;;;;;;36.33;31.48;;;;;;;;;;10313271;28;20084;-66
2023/05/21 07:08:13;;;;;;;10.48;7.38;;;;;;;;;;10299870;28;20075;-65
2023/05/21 07:13:11;;;;;;;12.50;7.88;;;;;;;;;;10297448;28;20052;-65
2023/05/21 07:18:10;;;;;;;7.15;6.38;;;;;;;;;;10293649;28;20095;-66
2023/05/21 07:23:10;;;;;;;10.88;6.85;;;;;;;;;;10321203;28;20087;-65
2023/05/21 07:28:09;;;;;;;10.38;6.40;;;;;;;;;;10315705;28;20088;-65
2023/05/21 07:33:08;;;;;;;7.65;6.32;;;;;;;;;;10298725;28;20075;-68
2023/05/21 07:38:07;;;;;;;9.77;6.85;;;;;;;;;;10314030;28;20076;-66
2023/05/21 07:43:06;;;;;;;7.78;6.68;;;;;;;;;;10315462;28;20064;-66
2023/05/21 07:48:07;;;;;;;6.05;5.25;;;;;;;;;;10312227;28;20084;-66
2023/05/21 07:53:10;;;;;;;11.30;6.53;;;;;;;;;;10308905;28;20094;-65
2023/05/21 07:58:10;;;;;;;7.32;6.50;;;;;;;;;;10311482;28;20080;-65
2023/05/21 08:03:10;;;;;;;10.65;5.38;;;;;;;;;;10304322;28;20516;-65
2023/05/21 08:08:09;;;;;;;6.45;5.80;;;;;;;;;;10314025;28;20079;-65
2023/05/21 08:13:07;;;;;;;6.43;5.47;;;;;;;;;;10310166;28;20079;-67
2023/05/21 08:18:07;;;;;;;11.75;4.78;;;;;;;;;;10305171;28;20088;-66
2023/05/21 08:23:06;;;;;;;10.18;6.43;;;;;;;;;;10325240;28;20072;-66
2023/05/21 08:28:11;;;;;;;7.05;4.88;;;;;;;;;;10291325;28;20642;-67
2023/05/21 08:33:12;;;;;;;7.75;5.45;;;;;;;;;;10307770;28;20083;-66
2023/05/21 08:38:11;;;;;;;9.38;6.35;;;;;;;;;;10311106;28;20670;-66
2023/05/21 08:43:27;;;;;;;7.25;5.38;;;;;;;;;;10308953;28;20202;-66
2023/05/21 08:48:27;;;;;;;8.75;5.68;;;;;;;;;;10299123;28;20080;-66
2023/05/21 08:53:26;;;;;;;12.95;9.45;;;;;;;;;;10309411;28;20083;-71
2023/05/21 08:58:27;;;;;;;6.20;5.55;;;;;;;;;;10301496;28;20068;-65
2023/05/21 09:03:28;;;;;;;10.13;5.70;;;;;;;;;;10301968;28;20080;-67
2023/05/21 09:08:29;;;;;;;7.60;5.65;;;;;;;;;;10289699;28;20473;-68
2023/05/21 09:13:35;;;;;;;6.13;5.45;;;;;;;;;;10305865;28;20088;-68
2023/05/21 09:18:41;;;;;;;7.35;6.63;;;;;;;;;;10302855;28;20518;-69
2023/05/21 09:23:44;;;;;;;;;;;;;;;;;;10296113;28;20150;-69
2023/05/21 09:28:42;;;;;;;11.75;5.88;;;;;;;;;;10296387;28;19959;-69
2023/05/21 09:33:45;;;;;;;10.18;6.32;;;;;;;;;;10314888;28;20232;-69
2023/05/21 09:38:45;;;;;;;5.75;4.57;;;;;;;;;;10295288;28;20538;-69
2023/05/21 09:43:43;;;;;;;9.23;6.97;;;;;;;;;;10322506;28;20084;-69
2023/05/21 09:48:43;;;;;;;7.55;5.95;;;;;;;;;;10316959;28;20041;-69
2023/05/21 09:53:50;;;;;;;7.78;4.72;;;;;;;;;;10303303;28;20084;-69
2023/05/21 09:58:49;;;;;;;9.25;5.15;;;;;;;;;;10318247;28;20087;-68
2023/05/21 10:03:50;;;;;;;13.93;4.35;;;;;;;;;;10295960;28;20079;-69
2023/05/21 10:08:52;;;;;;;6.63;5.63;;;;;;;;;;10309696;28;20040;-68
2023/05/21 10:13:55;;;;;;;6.45;5.22;;;;;;;;;;10318756;28;20510;-68
2023/05/21 10:18:54;;;;;;;10.23;4.95;;;;;;;;;;10297572;28;20091;-69
2023/05/21 10:23:56;;;;;;;12.52;6.13;;;;;;;;;;10308901;28;20068;-69
2023/05/21 10:28:56;;;;;;;13.48;4.80;;;;;;;;;;10317880;28;20068;-68
2023/05/21 10:33:54;;;;;;;7.53;4.70;;;;;;;;;;10307008;28;20069;-69
2023/05/21 10:38:54;;;;;;;5.47;4.97;;;;;;;;;;10299205;28;20079;-69
2023/05/21 10:43:59;;;;;;;7.20;4.90;;;;;;;;;;10297355;28;20078;-69
2023/05/21 10:49:00;;;;;;;5.65;4.28;;;;;;;;;;10311507;28;20087;-69
2023/05/21 10:54:08;;;;;;;9.43;5.32;;;;;;;;;;10317652;28;20118;-68
2023/05/21 10:59:10;;;;;;;6.20;4.28;;;;;;;;;;10297878;28;20185;-69
2023/05/21 11:04:11;;;;;;;6.55;5.13;;;;;;;;;;10305601;28;20060;-69
2023/05/21 11:09:13;;;;;;;8.68;4.88;;;;;;;;;;10310335;28;20082;-69
2023/05/21 11:14:33;;;;;;;7.68;5.18;;;;;;;;;;10312842;28;20099;-68
2023/05/21 11:19:33;;;;;;;6.88;4.53;;;;;;;;;;10316077;28;20092;-69
2023/05/21 11:24:36;;;;;;;10.75;4.82;;;;;;;;;;10296442;28;20466;-68
2023/05/21 11:29:52;;;;;;;7.95;5.72;;;;;;;;;;10316040;28;20075;-69
2023/05/21 11:34:51;;;;;;;5.35;4.82;;;;;;;;;;10289964;28;20084;-69
2023/05/21 11:39:51;;;;;;;12.05;5.63;;;;;;;;;;10303688;28;20107;-69
2023/05/21 11:44:49;;;;;;;14.35;5.82;;;;;;;;;;10302053;28;20083;-69
2023/05/21 11:49:48;;;;;;;8.93;5.03;;;;;;;;;;10296579;28;20067;-69
2023/05/21 11:54:47;;;;;;;7.97;4.80;;;;;;;;;;10305874;28;20071;-69
2023/05/21 11:59:47;;;;;;;9.23;5.45;;;;;;;;;;10315872;28;20072;-69
2023/05/21 12:04:47;;;;;;;8.82;4.47;;;;;;;;;;10298332;28;20473;-69
2023/05/21 12:09:46;;;;;;;6.75;4.63;;;;;;;;;;10306955;28;20518;-69
2023/05/21 12:14:45;;;;;;;7.53;4.45;;;;;;;;;;10301789;28;20064;-70
2023/05/21 12:19:45;;;;;;;7.25;4.03;;;;;;;;;;10299233;28;20085;-69
2023/05/21 12:24:44;;;;;;;8.60;4.57;;;;;;;;;;10314214;28;20068;-68
2023/05/21 12:29:43;;;;;;;6.22;4.03;;;;;;;;;;10289101;28;20075;-69
2023/05/21 12:34:43;;;;;;;5.03;4.30;;;;;;;;;;10305009;28;20510;-68
2023/05/21 12:39:43;;;;;;;7.28;4.70;;;;;;;;;;10314573;28;20095;-68
2023/05/21 12:44:46;;;;;;;4.05;3.53;;;;;;;;;;10294664;28;20064;-69
2023/05/21 12:49:46;;;;;;;6.13;5.53;;;;;;;;;;10311795;28;20044;-70
2023/05/21 12:54:49;;;;;;;9.57;3.95;;;;;;;;;;10287031;28;20501;-70
2023/05/21 12:59:48;;;;;;;7.20;5.53;;;;;;;;;;10310319;28;20524;-68
2023/05/21 13:04:47;;;;;;;6.60;4.80;;;;;;;;;;10312570;28;20068;-70
2023/05/21 13:09:47;;;;;;;9.75;4.95;;;;;;;;;;10294091;28;20072;-69
2023/05/21 13:14:45;;;;;;;15.50;4.65;;;;;;;;;;10310617;28;20080;-69
2023/05/21 13:19:46;;;;;;;10.70;4.57;;;;;;;;;;10311616;28;20080;-69
2023/05/21 13:24:46;;;;;;;7.65;4.57;;;;;;;;;;10299193;28;20060;-69
2023/05/21 13:29:45;;;;;;;7.97;4.60;;;;;;;;;;10311651;28;20080;-69
2023/05/21 13:34:43;;;;;;;9.27;3.80;;;;;;;;;;10291964;28;20462;-69
2023/05/21 13:39:41;;;;;;;7.57;4.70;;;;;;;;;;10304982;28;20076;-70
2023/05/21 13:44:41;;;;;;;11.00;5.45;;;;;;;;;;10313441;28;20600;-69
2023/05/21 13:49:39;;;;;;;7.28;4.97;;;;;;;;;;10312975;28;20074;-69
2023/05/21 13:54:37;;;;;;;8.00;4.30;;;;;;;;;;10310388;28;20060;-69
2023/05/21 13:59:35;;;;;;;8.85;4.38;;;;;;;;;;10298926;28;20081;-69
2023/05/21 14:04:35;;;;;;;7.40;4.53;;;;;;;;;;10312077;28;20068;-69
2023/05/21 14:09:36;;;;;;;10.82;5.47;;;;;;;;;;10312308;28;20095;-69
2023/05/21 14:14:35;;;;;;;9.95;5.00;;;;;;;;;;10319658;28;20446;-69
2023/05/21 14:19:33;;;;;;;7.07;4.88;;;;;;;;;;10308700;28;20084;-70
2023/05/21 14:24:32;;;;;;;7.90;4.00;;;;;;;;;;10302024;28;20640;-69
2023/05/21 14:29:33;;;;;;;10.63;4.80;;;;;;;;;;10318585;28;20075;-69
2023/05/21 14:34:31;;;;;;;8.43;5.72;;;;;;;;;;10312808;28;20069;-69
2023/05/21 14:39:29;;;;;;;6.25;3.83;;;;;;;;;;10319063;28;20080;-69
2023/05/21 14:44:30;;;;;;;6.80;3.88;;;;;;;;;;10302727;28;20073;-69
2023/05/21 14:49:29;;;;;;;12.88;4.45;;;;;;;;;;10316941;28;20075;-69
2023/05/21 14:54:27;;;;;;;12.65;5.13;;;;;;;;;;10316754;28;20072;-69
2023/05/21 14:59:26;;;;;;;9.88;3.53;;;;;;;;;;10308597;28;20551;-69
2023/05/21 15:04:25;;;;;;;5.60;3.95;;;;;;;;;;10298802;28;20076;-69
2023/05/21 15:09:24;;;;;;;8.40;4.32;;;;;;;;;;10305367;28;20064;-68
2023/05/21 15:14:22;;;;;;;11.32;4.80;;;;;;;;;;10292335;28;20076;-68
2023/05/21 15:19:20;;;;;;;8.63;4.60;;;;;;;;;;10293176;28;20080;-70
2023/05/21 15:24:20;;;;;;;8.35;4.90;;;;;;;;;;10314616;28;20503;-72
2023/05/21 15:29:18;;;;;;;12.52;4.43;;;;;;;;;;10315592;28;20083;-69
2023/05/21 15:34:16;;;;;;;6.60;4.10;;;;;;;;;;10297417;28;20080;-68
2023/05/21 15:39:15;;;;;;;6.60;5.15;;;;;;;;;;10306321;28;20060;-69
2023/05/21 15:44:14;;;;;;;12.52;4.53;;;;;;;;;;10315236;28;20075;-69
2023/05/21 15:49:13;;;;;;;5.22;4.43;;;;;;;;;;10302336;28;20072;-69
2023/05/21 15:54:11;;;;;;;7.20;6.28;;;;;;;;;;10315859;28;20068;-69
2023/05/21 15:59:09;;;;;;;10.93;4.82;;;;;;;;;;10293131;28;20074;-68
2023/05/21 16:04:09;;;;;;;5.85;4.97;;;;;;;;;;10305125;28;20107;-69
2023/05/21 16:09:07;;;;;;;7.47;5.93;;;;;;;;;;10315291;28;20075;-69
2023/05/21 16:14:05;;;;;;;8.48;4.72;;;;;;;;;;10293076;28;20613;-69
2023/05/21 16:19:04;;;;;;;9.10;5.30;;;;;;;;;;10304011;28;20091;-69
2023/05/21 16:24:03;;;;;;;8.13;5.88;;;;;;;;;;10314690;28;20517;-70
2023/05/21 16:29:02;;;;;;;8.50;4.45;;;;;;;;;;10311882;28;20122;-69
2023/05/21 16:34:00;;;;;;;7.55;5.47;;;;;;;;;;10288715;28;20076;-69
2023/05/21 16:38:58;;;;;;;10.55;5.72;;;;;;;;;;10297889;28;20067;-69
2023/05/21 16:43:58;;;;;;;10.38;5.40;;;;;;;;;;10300567;28;20072;-69
2023/05/21 16:48:58;;;;;;;6.97;4.13;;;;;;;;;;10313779;28;20095;-69
2023/05/21 16:53:56;;;;;;;6.90;5.47;;;;;;;;;;10299452;28;20068;-69
2023/05/21 16:58:54;;;;;;;9.13;4.68;;;;;;;;;;10299846;28;20083;-69
2023/05/21 17:03:54;;;;;;;9.52;5.72;;;;;;;;;;10313124;28;20518;-69
2023/05/21 17:08:53;;;;;;;9.73;5.38;;;;;;;;;;10300724;28;20490;-69
2023/05/21 17:13:51;;;;;;;6.32;5.00;;;;;;;;;;10298123;28;20509;-69
2023/05/21 17:18:49;;;;;;;10.43;5.25;;;;;;;;;;10312672;28;20556;-68
2023/05/21 17:23:49;;;;;;;10.90;5.82;;;;;;;;;;10306151;28;20521;-69
2023/05/21 17:28:47;;;;;;;8.50;5.45;;;;;;;;;;10312067;28;20613;-69
2023/05/21 17:33:45;;;;;;;6.55;5.03;;;;;;;;;;10292272;28;20075;-69
2023/05/21 17:38:43;;;;;;;10.85;5.63;;;;;;;;;;10306737;28;20516;-70
2023/05/21 17:43:43;;;;;;;5.53;4.70;;;;;;;;;;10304969;28;20113;-70
2023/05/21 17:48:41;;;;;;;7.07;4.68;;;;;;;;;;10303454;28;20090;-69
2023/05/21 17:53:42;;;;;;;8.38;4.47;;;;;;;;;;10307474;28;20080;-69
2023/05/21 17:58:40;;;;;;;11.32;4.88;;;;;;;;;;10320062;28;20083;-69
2023/05/21 18:03:40;;;;;;;9.43;5.10;;;;;;;;;;10320208;28;20093;-69
2023/05/21 18:08:38;;;;;;;8.40;5.78;;;;;;;;;;10298878;28;20068;-69
2023/05/21 18:13:38;;;;;;;7.50;4.72;;;;;;;;;;10311831;28;20068;-70
2023/05/21 18:18:36;;;;;;;8.15;4.70;;;;;;;;;;10317828;28;20106;-69
2023/05/21 18:23:36;;;;;;;13.70;5.35;;;;;;;;;;10300667;28;20068;-69
2023/05/21 18:28:35;;;;;;;7.20;5.93;;;;;;;;;;10308142;28;20064;-69
2023/05/21 18:33:33;;;;;;;9.10;4.68;;;;;;;;;;10314215;28;20072;-69
2023/05/21 18:38:32;;;;;;;5.40;4.20;;;;;;;;;;10310907;28;20076;-68
2023/05/21 18:43:32;;;;;;;8.75;5.00;;;;;;;;;;10299902;28;20072;-69
2023/05/21 18:48:30;;;;;;;7.15;5.45;;;;;;;;;;10316516;28;20098;-67
2023/05/21 18:53:28;;;;;;;6.15;5.35;;;;;;;;;;10306708;28;20100;-67
2023/05/21 18:58:28;;;;;;;5.43;4.90;;;;;;;;;;10303038;28;20518;-68
2023/05/21 19:03:27;;;;;;;7.32;4.72;;;;;;;;;;10303038;28;20596;-67
2023/05/21 19:08:25;;;;;;;6.72;4.70;;;;;;;;;;10299232;28;20068;-67
2023/05/21 19:13:25;;;;;;;7.65;4.40;;;;;;;;;;10297407;28;20075;-67
2023/05/21 19:18:28;;;;;;;7.28;4.95;;;;;;;;;;10298196;28;20071;-68
2023/05/21 19:23:28;;;;;;;6.65;4.60;;;;;;;;;;10306830;28;20104;-69
2023/05/21 19:28:39;;;;;;;9.80;5.50;;;;;;;;;;10316602;28;20076;-68
2023/05/21 19:33:37;;;;;;;7.80;6.60;;;;;;;;;;10313586;28;20544;-68
2023/05/21 19:38:38;;;;;;;7.40;5.50;;;;;;;;;;10313329;28;20080;-71
2023/05/21 19:43:36;;;;;;;7.45;6.40;;;;;;;;;;10304146;28;20148;-69
2023/05/21 19:48:34;;;;;;;7.82;5.82;;;;;;;;;;10302220;28;20517;-69
2023/05/21 19:53:33;;;;;;;9.20;6.00;;;;;;;;;;10306646;28;20063;-70
2023/05/21 19:58:33;;;;;;;9.27;6.35;;;;;;;;;;10295466;28;20068;-69
2023/05/21 20:03:34;;;;;;;9.68;5.35;;;;;;;;;;10298401;28;20533;-70
2023/05/21 20:08:32;;;;;;;7.13;5.85;;;;;;;;;;10302794;28;20068;-69
2023/05/21 20:13:31;;;;;;;6.90;6.20;;;;;;;;;;10301557;28;20068;-69
2023/05/21 20:18:30;;;;;;;8.75;6.72;;;;;;;;;;10297480;28;20092;-70
2023/05/21 20:23:28;;;;;;;10.57;7.72;;;;;;;;;;10301260;28;20536;-70
2023/05/21 20:28:27;;;;;;;7.45;6.75;;;;;;;;;;10300360;28;20068;-70
2023/05/21 20:33:25;;;;;;;11.48;8.63;;;;;;;;;;10300775;28;20079;-70
2023/05/21 20:38:25;;;;;;;6.70;5.95;;;;;;;;;;10299341;28;20067;-70
2023/05/21 20:43:24;;;;;;;6.80;6.10;;;;;;;;;;10291365;28;20072;-70
2023/05/21 20:48:22;;;;;;;6.18;4.88;;;;;;;;;;10303807;28;20075;-70
2023/05/21 20:53:21;;;;;;;6.88;4.60;;;;;;;;;;10299273;28;20506;-70
2023/05/21 20:58:20;;;;;;;13.15;5.40;;;;;;;;;;10297392;28;20084;-70
2023/05/21 21:03:20;;;;;;;5.57;4.50;;;;;;;;;;10302157;28;20064;-70
2023/05/21 21:08:18;;;;;;;6.57;4.70;;;;;;;;;;10298151;28;20099;-71
2023/05/21 21:13:18;;;;;;;10.38;4.88;;;;;;;;;;10298431;28;20084;-71
2023/05/21 21:18:18;;;;;;;5.95;4.57;;;;;;;;;;10298272;28;20612;-70
2023/05/21 21:23:16;;;;;;;5.80;4.18;;;;;;;;;;10304844;28;20080;-70
2023/05/21 21:28:14;;;;;;;6.45;4.78;;;;;;;;;;10306603;28;20463;-71
2023/05/21 21:33:14;;;;;;;9.48;5.35;;;;;;;;;;10305682;28;20079;-70
2023/05/21 21:38:14;;;;;;;5.40;4.45;;;;;;;;;;10305641;28;20064;-71
2023/05/21 21:43:15;;;;;;;4.72;4.22;;;;;;;;;;10304419;28;20078;-71
2023/05/21 21:48:15;;;;;;;6.20;4.47;;;;;;;;;;10307227;28;20521;-71
2023/05/21 21:53:14;;;;;;;3.97;3.58;;;;;;;;;;10305471;28;20321;-70
2023/05/21 21:58:13;;;;;;;6.22;4.75;;;;;;;;;;10305736;28;20069;-71
2023/05/21 22:03:11;;;;;;;5.63;4.32;;;;;;;;;;10301067;28;20465;-71
2023/05/21 22:08:11;;;;;;;7.50;3.90;;;;;;;;;;10302936;28;20513;-70
2023/05/21 22:13:11;;;;;;;6.00;3.60;;;;;;;;;;10304729;28;20449;-71
2023/05/21 22:18:10;;;;;;;4.30;3.90;;;;;;;;;;10302353;28;20084;-71
2023/05/21 22:23:18;;;;;;;6.70;4.28;;;;;;;;;;10296754;28;20501;-69
2023/05/21 22:28:19;;;;;;;6.63;3.97;;;;;;;;;;10297385;28;20068;-70
2023/05/21 22:33:17;;;;;;;5.50;3.80;;;;;;;;;;10301780;28;20102;-70
2023/05/21 22:38:16;;;;;;;6.75;4.50;;;;;;;;;;10298969;28;20071;-71
2023/05/21 22:43:18;;;;;;;7.93;4.93;;;;;;;;;;10301137;28;20064;-70
2023/05/21 22:48:17;;;;;;;5.00;4.53;;;;;;;;;;10295767;28;20065;-70
2023/05/21 22:53:15;;;;;;;5.47;4.22;;;;;;;;;;10298598;28;20078;-70
2023/05/21 22:58:13;;;;;;;7.95;4.82;;;;;;;;;;10300401;28;20447;-70
2023/05/21 23:03:13;;;;;;;5.20;4.15;;;;;;;;;;10298997;28;20560;-70
2023/05/21 23:08:11;;;;;;;6.55;5.25;;;;;;;;;;10300874;28;20072;-71
2023/05/21 23:13:11;;;;;;;6.50;4.15;;;;;;;;;;10299329;28;20073;-71
2023/05/21 23:18:10;;;;;;;5.97;4.20;;;;;;;;;;10298248;28;20072;-71
2023/05/21 23:23:10;;;;;;;5.30;4.80;;;;;;;;;;10299607;28;20517;-70
2023/05/21 23:28:08;;;;;;;4.35;3.95;;;;;;;;;;10298355;28;20064;-70
2023/05/21 23:33:06;;;;;;;4.57;4.18;;;;;;;;;;10300377;28;20076;-70
2023/05/21 23:38:04;;;;;;;5.72;4.35;;;;;;;;;;10292516;28;20072;-71
2023/05/21 23:43:04;;;;;;;5.38;4.32;;;;;;;;;;10297991;28;20068;-70
2023/05/21 23:48:02;;;;;;;8.10;4.38;;;;;;;;;;10299749;28;20072;-71
2023/05/21 23:53:01;;;;;;;5.10;4.00;;;;;;;;;;10295718;28;20068;-70
2023/05/21 23:58:00;;;;;;;7.35;3.70;;;;;;;;;;10297295;28;20070;-70
